Time;durP1;ratioP1;P1;durP2;ratioP2;P2;SDS_P1;SDS_P2;PMS_P1;PMS_P2;Temp;Humidity;BMP_temperature;BMP_pressure;BME280_temperature;BME280_humidity;BME280_pressure;Samples;Min_cycle;Max_cycle;Signal;HPM_P1;HPM_P2
2021/05/06 00:01:52;;;;;;;2.63;2.42;;;2.20;99.90;;;;;;5097533;28;20044;-87
2021/05/06 00:31:56;;;;;;;5.07;4.10;;;2.30;99.90;;;;;;5114482;28;20101;-87
2021/05/06 00:34:20;;;;;;;6.05;4.18;;;2.30;99.90;;;;;;5114688;28;20043;-87
2021/05/06 00:36:47;;;;;;;5.22;4.05;;;2.30;99.90;;;;;;5114903;28;20039;-87
2021/05/06 00:39:18;;;;;;;4.68;3.85;;;2.30;99.90;;;;;;5096346;28;20055;-87
2021/05/06 01:02:59;;;;;;;4.30;3.22;;;1.90;99.90;;;;;;5115542;28;20079;-87
2021/05/06 01:05:31;;;;;;;3.38;3.08;;;1.90;99.90;;;;;;5108063;28;20051;-86
2021/05/06 01:13:52;;;;;;;6.43;3.53;;;1.60;99.90;;;;;;5119645;28;20047;-87
2021/05/06 01:16:32;;;;;;;4.40;3.30;;;1.50;99.90;;;;;;5103325;28;20044;-88
2021/05/06 01:19:09;;;;;;;5.30;3.22;;;1.40;99.90;;;;;;5103189;28;20063;-88
2021/05/06 01:22:00;;;;;;;4.43;3.63;;;1.30;99.90;;;;;;5103441;28;20571;-88
2021/05/06 01:24:37;;;;;;;4.97;3.10;;;1.10;99.90;;;;;;5104372;28;20061;-87
2021/05/06 01:39:36;;;;;;;5.32;4.18;;;0.90;99.90;;;;;;5107083;28;20088;-87
2021/05/06 01:47:35;;;;;;;5.50;3.45;;;0.60;99.90;;;;;;5109805;28;20050;-87
2021/05/06 02:01:14;;;;;;;15.23;6.68;;;0.50;99.90;;;;;;5109307;28;20052;-87
2021/05/06 02:03:43;;;;;;;6.65;5.93;;;0.60;99.90;;;;;;5092379;28;20052;-86
2021/05/06 02:06:15;;;;;;;10.07;6.72;;;0.80;99.90;;;;;;5094216;28;20119;-87
2021/05/06 02:08:42;;;;;;;6.22;5.53;;;0.80;99.90;;;;;;5093072;28;20040;-87
2021/05/06 02:11:08;;;;;;;9.75;5.55;;;0.90;99.90;;;;;;5092081;28;20052;-87
2021/05/06 02:13:36;;;;;;;6.80;4.88;;;0.80;99.90;;;;;;5093016;28;20048;-87
2021/05/06 02:16:15;;;;;;;9.20;6.30;;;0.80;99.90;;;;;;5093927;28;20040;-87
2021/05/06 02:18:41;;;;;;;6.28;4.93;;;0.80;99.90;;;;;;5093047;28;20059;-87
2021/05/06 02:21:17;;;;;;;6.47;5.60;;;0.80;99.90;;;;;;5096908;28;20063;-86
2021/05/06 02:23:51;;;;;;;9.35;5.55;;;0.70;99.90;;;;;;5092372;28;20048;-88
2021/05/06 02:26:21;;;;;;;8.85;6.53;;;0.70;99.90;;;;;;5094115;28;20052;-87
2021/05/06 02:28:49;;;;;;;10.15;6.60;;;0.70;99.90;;;;;;5093978;28;20078;-87
2021/05/06 02:31:16;;;;;;;6.97;5.93;;;0.70;99.90;;;;;;5093727;28;20071;-87
2021/05/06 02:33:44;;;;;;;8.95;6.50;;;0.70;99.90;;;;;;5093509;28;20048;-87
2021/05/06 02:36:12;;;;;;;9.55;6.88;;;0.90;99.90;;;;;;5094250;28;20070;-87
2021/05/06 02:38:39;;;;;;;7.85;6.47;;;0.90;99.90;;;;;;5098566;28;20104;-87
2021/05/06 02:41:11;;;;;;;8.77;6.20;;;0.80;99.90;;;;;;5109693;28;20070;-87
2021/05/06 02:43:39;;;;;;;7.40;6.07;;;0.70;99.90;;;;;;5109672;28;20058;-88
2021/05/06 02:46:06;;;;;;;15.75;6.43;;;0.70;99.90;;;;;;5110449;28;20055;-87
2021/05/06 02:48:39;;;;;;;11.00;6.53;;;0.60;99.90;;;;;;5108279;28;20066;-87
2021/05/06 02:51:14;;;;;;;10.07;6.45;;;0.70;99.90;;;;;;5108206;28;20052;-88
2021/05/06 02:53:57;;;;;;;8.55;6.72;;;0.60;99.90;;;;;;5109525;28;20059;-87
2021/05/06 03:04:11;;;;;;;18.27;9.23;;;0.70;99.90;;;;;;5110418;28;20116;-87
2021/05/06 03:06:51;;;;;;;17.90;10.30;;;0.90;99.90;;;;;;5110199;28;20627;-87
2021/05/06 03:12:10;;;;;;;24.05;11.52;;;1.10;99.90;;;;;;5115495;28;20052;-87
2021/05/06 03:23:03;;;;;;;28.50;20.63;;;1.80;99.90;;;;;;5110549;28;20060;-88
2021/05/06 03:25:35;;;;;;;16.27;12.63;;;1.90;99.90;;;;;;5110072;28;20048;-88
2021/05/06 03:28:12;;;;;;;19.38;13.63;;;2.00;99.90;;;;;;5109289;28;20051;-87
2021/05/06 03:41:50;;;;;;;16.05;13.38;;;3.30;99.90;;;;;;5125352;28;20108;-87
2021/05/06 04:17:07;;;;;;;5.15;4.75;;;5.00;99.90;;;;;;5121796;28;20051;-87
2021/05/06 04:27:18;;;;;;;4.13;3.92;;;5.10;99.90;;;;;;5114900;28;20169;-85
2021/05/06 04:37:54;;;;;;;4.40;3.95;;;5.20;99.90;;;;;;5122411;28;20101;-87
2021/05/06 05:04:46;;;;;;;4.63;3.20;;;5.40;99.90;;;;;;5120993;28;20438;-85
2021/05/06 05:13:14;;;;;;;5.82;2.72;;;5.50;99.90;;;;;;5101216;28;20398;-86
2021/05/06 05:23:47;;;;;;;3.45;2.38;;;7.00;99.90;;;;;;5102502;28;20075;-85
2021/05/06 05:26:14;;;;;;;4.57;2.70;;;7.10;99.90;;;;;;5084265;28;20044;-83
2021/05/06 05:28:41;;;;;;;2.95;2.42;;;6.90;99.90;;;;;;5083281;28;20048;-86
2021/05/06 05:31:08;;;;;;;3.08;2.47;;;6.80;99.90;;;;;;5088866;28;20547;-85
2021/05/06 05:34:05;;;;;;;4.90;2.63;;;6.60;99.90;;;;;;5093392;28;20134;-87
2021/05/06 05:36:24;;;;;;;2.30;2.10;;;6.60;99.90;;;;;;5104946;28;20072;-84
2021/05/06 05:41:38;;;;;;;2.10;1.90;;;7.50;99.90;;;;;;5103414;28;20093;-87
2021/05/06 05:56:52;;;;;;;5.28;3.60;;;8.00;99.90;;;;;;5100297;28;20073;-85
2021/05/06 05:59:18;;;;;;;1.75;1.65;;;8.40;99.90;;;;;;5084614;28;20082;-86
2021/05/06 06:01:48;;;;;;;1.90;1.80;;;8.70;99.90;;;;;;5101567;28;20500;-86
2021/05/06 06:04:18;;;;;;;1.95;1.50;;;9.30;99.90;;;;;;5106188;28;20207;-86
2021/05/06 06:06:44;;;;;;;1.65;1.52;;;9.20;99.90;;;;;;5095414;28;20044;-87
2021/05/06 06:09:10;;;;;;;2.10;1.90;;;8.90;99.90;;;;;;5097638;28;20093;-87
2021/05/06 06:11:36;;;;;;;4.78;3.15;;;8.50;99.90;;;;;;5092047;28;20427;-87
2021/05/06 06:14:10;;;;;;;2.47;1.73;;;8.40;99.90;;;;;;5107232;28;20048;-86
2021/05/06 06:16:40;;;;;;;1.98;1.70;;;8.90;99.90;;;;;;5125607;28;20043;-86
2021/05/06 06:19:06;;;;;;;3.08;2.05;;;9.50;99.90;;;;;;5113730;28;20038;-87
2021/05/06 06:21:44;;;;;;;4.20;2.17;;;9.10;99.90;;;;;;5109116;28;20062;-83
2021/05/06 06:24:11;;;;;;;3.97;1.83;;;9.30;99.90;;;;;;5103118;28;20047;-87
2021/05/06 06:26:37;;;;;;;4.00;2.33;;;9.10;99.90;;;;;;5104417;28;20073;-86
2021/05/06 06:29:08;;;;;;;2.65;2.45;;;8.90;99.90;;;;;;5104316;28;20048;-87
2021/05/06 06:31:41;;;;;;;4.05;2.22;;;8.60;99.90;;;;;;5121544;28;20048;-87
2021/05/06 06:34:08;;;;;;;7.10;2.47;;;8.50;99.90;;;;;;5105102;28;20050;-85
2021/05/06 06:36:38;;;;;;;3.90;2.50;;;7.90;99.90;;;;;;5105533;28;20043;-85
2021/05/06 06:39:05;;;;;;;6.13;2.38;;;7.50;99.90;;;;;;5105178;28;20077;-86
2021/05/06 06:41:32;;;;;;;3.78;2.13;;;7.30;99.90;;;;;;5104068;28;20158;-86
2021/05/06 06:44:01;;;;;;;9.15;2.50;;;7.30;99.90;;;;;;5104881;28;20059;-87
2021/05/06 06:46:32;;;;;;;4.88;2.40;;;7.30;99.90;;;;;;5104357;28;20069;-87
2021/05/06 06:49:00;;;;;;;2.83;2.00;;;7.40;99.90;;;;;;5102555;28;20054;-86
2021/05/06 06:51:27;;;;;;;11.80;2.50;;;7.50;99.90;;;;;;5103037;28;20082;-87
2021/05/06 06:53:53;;;;;;;2.33;1.60;;;7.70;99.90;;;;;;5104587;28;20043;-87
2021/05/06 06:56:20;;;;;;;3.45;1.80;;;8.00;99.90;;;;;;5103670;28;20508;-85
2021/05/06 06:58:51;;;;;;;1.92;1.77;;;8.00;99.90;;;;;;5106595;28;20067;-86
2021/05/06 07:01:19;;;;;;;4.63;1.70;;;7.90;99.90;;;;;;5105271;28;20069;-86
2021/05/06 07:03:45;;;;;;;2.65;2.05;;;7.90;99.90;;;;;;5106313;28;20449;-87
2021/05/06 07:06:13;;;;;;;1.85;1.75;;;7.90;99.90;;;;;;5105124;28;20071;-86
2021/05/06 07:08:42;;;;;;;3.60;1.88;;;8.10;99.90;;;;;;5104730;28;20090;-85
2021/05/06 07:11:09;;;;;;;2.92;1.83;;;8.00;99.90;;;;;;5103898;28;20051;-87
2021/05/06 07:13:36;;;;;;;1.83;1.23;;;8.80;99.90;;;;;;5106701;28;20483;-86
2021/05/06 07:16:05;;;;;;;4.40;1.30;;;10.50;99.90;;;;;;5106731;28;20050;-86
2021/05/06 07:18:32;;;;;;;12.98;2.55;;;12.20;99.90;;;;;;5103991;28;20395;-87
2021/05/06 07:21:00;;;;;;;2.38;1.40;;;12.10;99.90;;;;;;5103836;28;20051;-87
2021/05/06 07:23:28;;;;;;;4.25;1.50;;;11.90;99.90;;;;;;5103305;28;20043;-87
2021/05/06 07:25:58;;;;;;;3.03;1.67;;;11.20;99.90;;;;;;5104062;28;20100;-86
2021/05/06 07:28:43;;;;;;;5.38;1.70;;;10.70;99.90;;;;;;5102793;28;20050;-86
2021/05/06 07:31:13;;;;;;;1.80;1.40;;;10.80;99.90;;;;;;5098025;28;20084;-86
2021/05/06 07:33:46;;;;;;;1.80;1.30;;;11.20;99.90;;;;;;5081372;28;20490;-86
2021/05/06 07:36:19;;;;;;;4.57;1.42;;;11.40;99.90;;;;;;5083570;28;20070;-86
2021/05/06 07:38:49;;;;;;;8.05;1.60;;;10.80;99.90;;;;;;5087804;28;20407;-85
2021/05/06 07:41:19;;;;;;;3.78;1.40;;;10.20;99.90;;;;;;5107799;28;20143;-83
2021/05/06 07:43:49;;;;;;;3.97;1.80;;;10.00;99.90;;;;;;5088352;28;20093;-86
2021/05/06 07:46:19;;;;;;;6.72;1.92;;;9.60;99.90;;;;;;5108748;28;20077;-86
2021/05/06 07:48:51;;;;;;;2.17;1.30;;;9.30;99.90;;;;;;5099902;28;20620;-86
2021/05/06 07:51:23;;;;;;;3.50;1.65;;;9.60;99.90;;;;;;5103767;28;20040;-84
2021/05/06 07:53:54;;;;;;;4.00;1.50;;;10.00;99.90;;;;;;5120514;28;20039;-86
2021/05/06 07:56:25;;;;;;;5.22;1.92;;;10.10;99.90;;;;;;5105668;28;20552;-86
2021/05/06 07:58:51;;;;;;;5.93;1.42;;;10.00;99.90;;;;;;5103869;28;20456;-86
2021/05/06 08:01:17;;;;;;;2.53;1.40;;;10.20;99.90;;;;;;5098887;28;20052;-86
2021/05/06 08:03:45;;;;;;;4.07;1.77;;;10.60;99.90;;;;;;5097493;28;20048;-84
2021/05/06 08:06:13;;;;;;;4.10;1.45;;;11.30;99.90;;;;;;5096946;28;20383;-85
2021/05/06 08:08:39;;;;;;;4.40;1.38;;;11.70;99.90;;;;;;5096655;28;20452;-86
2021/05/06 08:11:08;;;;;;;4.82;1.42;;;11.80;99.90;;;;;;5102331;28;20079;-87
2021/05/06 08:13:35;;;;;;;3.08;1.33;;;12.00;99.90;;;;;;5102766;28;20043;-86
2021/05/06 08:16:02;;;;;;;4.55;1.50;;;12.50;99.90;;;;;;5103844;28;20552;-85
2021/05/06 08:18:28;;;;;;;1.75;1.40;;;12.50;99.90;;;;;;5102901;28;20043;-87
2021/05/06 08:21:03;;;;;;;10.43;1.90;;;12.50;99.90;;;;;;5102965;28;20070;-85
2021/05/06 08:23:31;;;;;;;2.63;1.40;;;12.80;99.90;;;;;;5121554;28;20150;-86
2021/05/06 08:25:57;;;;;;;2.80;1.40;;;13.10;99.90;;;;;;5104700;28;20051;-85
2021/05/06 08:28:44;;;;;;;1.55;1.17;;;12.90;99.90;;;;;;5122686;28;20049;-86
2021/05/06 08:31:12;;;;;;;2.72;1.80;;;12.80;99.90;;;;;;5104467;28;20050;-87
2021/05/06 08:33:38;;;;;;;4.25;1.13;;;12.80;99.90;;;;;;5103332;28;20044;-86
2021/05/06 08:36:04;;;;;;;2.63;1.27;;;13.30;99.90;;;;;;5101729;28;20097;-86
2021/05/06 08:38:31;;;;;;;7.80;1.92;;;14.00;99.90;;;;;;5105050;28;20055;-86
2021/05/06 08:40:58;;;;;;;10.50;1.92;;;13.00;99.90;;;;;;5099967;28;20074;-86
2021/05/06 08:43:27;;;;;;;2.45;1.40;;;12.60;99.90;;;;;;5101249;28;20052;-87
2021/05/06 08:45:55;;;;;;;4.60;1.40;;;12.20;99.90;;;;;;5105382;28;20121;-86
2021/05/06 08:48:22;;;;;;;4.20;1.30;;;11.90;99.90;;;;;;5099126;28;20044;-84
2021/05/06 08:50:49;;;;;;;11.00;1.65;;;11.90;99.90;;;;;;5084451;28;20040;-86
2021/05/06 08:53:17;;;;;;;5.65;1.33;;;11.50;99.90;;;;;;5085841;28;20083;-86
2021/05/06 08:55:44;;;;;;;3.75;1.70;;;11.40;99.90;;;;;;5090010;28;20085;-87
2021/05/06 08:58:12;;;;;;;5.43;2.10;;;11.70;99.90;;;;;;5095712;28;20082;-86
2021/05/06 09:00:39;;;;;;;4.90;1.55;;;11.70;99.90;;;;;;5098361;28;20048;-87
2021/05/06 09:03:06;;;;;;;9.80;1.85;;;11.90;99.90;;;;;;5088366;28;20109;-86
2021/05/06 09:05:36;;;;;;;3.92;1.10;;;12.20;99.90;;;;;;5098589;28;20057;-86
2021/05/06 09:08:03;;;;;;;1.67;1.25;;;12.50;99.90;;;;;;5097855;28;20063;-86
2021/05/06 09:10:40;;;;;;;2.58;1.05;;;12.70;98.70;;;;;;5097438;28;20072;-85
2021/05/06 09:13:29;;;;;;;6.63;1.60;;;12.60;97.00;;;;;;5097269;28;20039;-87
2021/05/06 09:15:55;;;;;;;3.88;1.33;;;12.30;97.90;;;;;;5098126;28;20044;-86
2021/05/06 09:18:39;;;;;;;2.92;1.30;;;12.10;98.80;;;;;;5098617;28;20105;-87
2021/05/06 09:21:25;;;;;;;10.75;1.50;;;11.70;99.90;;;;;;5099491;28;20060;-87
2021/05/06 09:24:22;;;;;;;3.55;1.42;;;11.00;99.90;;;;;;5100531;28;20384;-87
2021/05/06 09:26:55;;;;;;;3.72;1.50;;;10.50;99.90;;;;;;5098262;28;20556;-85
2021/05/06 09:29:42;;;;;;;3.17;1.42;;;10.40;99.90;;;;;;5097008;28;20074;-86
2021/05/06 09:32:22;;;;;;;3.38;1.35;;;10.20;99.90;;;;;;5098816;28;20066;-85
2021/05/06 09:34:52;;;;;;;2.40;1.38;;;10.10;99.90;;;;;;5101023;28;20048;-86
2021/05/06 09:37:25;;;;;;;2.45;1.40;;;9.90;99.90;;;;;;5099708;28;20078;-87
2021/05/06 09:40:00;;;;;;;52.70;3.25;;;9.70;99.90;;;;;;5099003;28;20112;-86
2021/05/06 09:42:37;;;;;;;3.65;1.23;;;9.60;99.90;;;;;;5098320;28;20052;-87
2021/05/06 09:45:04;;;;;;;6.65;1.35;;;9.60;99.90;;;;;;5098420;28;20044;-87
2021/05/06 09:47:32;;;;;;;4.47;1.63;;;9.50;99.90;;;;;;5096748;28;20052;-87
2021/05/06 09:49:58;;;;;;;3.03;1.52;;;9.50;99.90;;;;;;5094413;28;20036;-86
2021/05/06 09:52:24;;;;;;;4.55;1.23;;;9.30;99.90;;;;;;5096888;28;20042;-86
2021/05/06 09:54:53;;;;;;;4.68;1.50;;;9.20;99.90;;;;;;5096151;28;20048;-87
2021/05/06 09:57:34;;;;;;;5.97;1.60;;;9.20;99.90;;;;;;5095575;28;20449;-86
2021/05/06 10:00:27;;;;;;;1.73;1.20;;;9.50;99.90;;;;;;5096895;28;20076;-84
2021/05/06 10:02:53;;;;;;;5.22;1.65;;;9.70;99.90;;;;;;5093270;28;20074;-84
2021/05/06 10:05:36;;;;;;;2.90;1.50;;;10.00;99.90;;;;;;5097234;28;20094;-83
2021/05/06 10:08:04;;;;;;;5.03;1.63;;;10.10;99.90;;;;;;5096196;28;20105;-83
2021/05/06 10:10:31;;;;;;;8.23;1.60;;;10.20;99.90;;;;;;5101430;28;20048;-85
2021/05/06 10:12:58;;;;;;;3.17;1.20;;;10.50;99.90;;;;;;5101141;28;20048;-85
2021/05/06 10:15:25;;;;;;;2.30;1.23;;;10.40;99.90;;;;;;5102169;28;20504;-86
2021/05/06 10:17:52;;;;;;;5.47;1.50;;;10.20;99.90;;;;;;5102353;28;20044;-87
2021/05/06 10:20:23;;;;;;;6.47;1.92;;;10.00;99.90;;;;;;5103447;28;20540;-87
2021/05/06 10:22:55;;;;;;;2.00;1.27;;;9.80;99.90;;;;;;5104591;28;20052;-88
2021/05/06 10:25:23;;;;;;;3.35;1.50;;;9.50;99.90;;;;;;5106033;28;20044;-87
2021/05/06 10:27:51;;;;;;;2.45;1.60;;;9.40;99.90;;;;;;5100318;28;20052;-87
2021/05/06 10:30:19;;;;;;;1.50;1.40;;;9.30;99.90;;;;;;5102296;28;20055;-86
2021/05/06 10:32:46;;;;;;;2.15;1.33;;;9.10;99.90;;;;;;5102170;28;20044;-87
2021/05/06 10:35:22;;;;;;;2.22;1.50;;;8.80;99.90;;;;;;5103740;28;20040;-87
2021/05/06 10:37:54;;;;;;;6.25;1.83;;;8.40;99.90;;;;;;5102877;28;20446;-87
2021/05/06 10:40:20;;;;;;;4.65;1.63;;;8.30;99.90;;;;;;5102948;28;20052;-87
2021/05/06 10:42:52;;;;;;;9.57;2.50;;;8.20;99.90;;;;;;5103641;28;20048;-87
2021/05/06 10:45:18;;;;;;;24.13;4.18;;;8.00;99.90;;;;;;5102353;28;20389;-86
2021/05/06 10:47:46;;;;;;;4.53;2.00;;;7.80;99.90;;;;;;5103398;28;20048;-87
2021/05/06 10:50:23;;;;;;;5.35;1.73;;;8.10;99.90;;;;;;5099555;28;20135;-87
2021/05/06 10:52:55;;;;;;;3.20;1.63;;;8.40;99.90;;;;;;5100392;28;20165;-87
2021/05/06 10:55:47;;;;;;;4.60;1.23;;;8.50;99.90;;;;;;5096426;28;20048;-87
2021/05/06 10:58:30;;;;;;;3.38;1.20;;;8.90;99.90;;;;;;5094531;28;20460;-86
2021/05/06 11:01:18;;;;;;;2.45;1.80;;;8.90;99.90;;;;;;5085306;28;20064;-86
2021/05/06 11:04:02;;;;;;;3.08;1.15;;;8.40;99.90;;;;;;5082662;28;20047;-87
2021/05/06 11:06:36;;;;;;;1.85;1.30;;;8.60;99.90;;;;;;5081680;28;20131;-87
2021/05/06 11:09:36;;;;;;;2.55;1.20;;;9.20;99.90;;;;;;5078616;28;20048;-87
2021/05/06 11:12:17;;;;;;;10.10;3.05;;;9.70;99.90;;;;;;5090445;28;20031;-87
2021/05/06 11:15:03;;;;;;;5.28;1.55;;;9.70;99.90;;;;;;5094305;28;20283;-87
2021/05/06 11:17:32;;;;;;;3.50;1.35;;;9.60;99.90;;;;;;5093930;28;20101;-87
2021/05/06 11:19:59;;;;;;;3.08;1.50;;;9.70;99.90;;;;;;5079206;28;20097;-87
2021/05/06 11:22:57;;;;;;;4.43;0.90;;;10.00;99.90;;;;;;5096653;28;20048;-86
2021/05/06 11:25:27;;;;;;;1.00;0.90;;;10.10;99.90;;;;;;5072676;28;20134;-88
2021/05/06 11:27:54;;;;;;;1.70;1.02;;;10.00;99.90;;;;;;5082761;28;20048;-87
2021/05/06 11:30:34;;;;;;;1.85;0.82;;;9.60;99.90;;;;;;5080335;28;20056;-88
2021/05/06 11:33:17;;;;;;;3.13;1.33;;;9.50;99.90;;;;;;5082630;28;20089;-87
2021/05/06 11:36:19;;;;;;;2.42;1.10;;;9.50;99.90;;;;;;5081270;28;20068;-87
2021/05/06 11:39:04;;;;;;;1.40;1.27;;;9.50;99.90;;;;;;5080726;28;20139;-85
2021/05/06 11:41:34;;;;;;;1.27;0.93;;;9.80;99.90;;;;;;5077442;28;20105;-87
2021/05/06 11:44:07;;;;;;;1.52;1.05;;;9.90;99.90;;;;;;5077076;28;20495;-87
2021/05/06 11:46:39;;;;;;;6.30;1.35;;;10.20;99.90;;;;;;5077892;28;20048;-86
2021/05/06 11:49:13;;;;;;;2.42;1.10;;;10.30;99.90;;;;;;5095096;28;20455;-84
2021/05/06 11:51:42;;;;;;;5.18;1.35;;;10.50;99.90;;;;;;5082259;28;20055;-87
2021/05/06 11:54:20;;;;;;;3.88;1.60;;;10.60;99.90;;;;;;5083711;28;20097;-87
2021/05/06 11:56:54;;;;;;;4.70;1.20;;;11.00;99.90;;;;;;5086061;28;20048;-87
2021/05/06 11:59:24;;;;;;;1.95;1.20;;;11.10;99.90;;;;;;5083799;28;20048;-87
2021/05/06 12:01:51;;;;;;;1.20;1.10;;;11.40;99.90;;;;;;5082506;28;20087;-86
2021/05/06 12:04:32;;;;;;;4.57;1.40;;;11.30;99.90;;;;;;5081497;28;20135;-86
2021/05/06 12:07:10;;;;;;;3.38;1.20;;;11.50;99.90;;;;;;5082784;28;20047;-86
2021/05/06 12:09:36;;;;;;;1.38;0.90;;;11.90;99.90;;;;;;5084379;28;20040;-87
2021/05/06 12:12:02;;;;;;;1.75;0.95;;;12.00;99.90;;;;;;5082637;28;20043;-87
2021/05/06 12:14:35;;;;;;;2.20;1.10;;;12.00;99.90;;;;;;5102202;28;20048;-87
2021/05/06 12:17:02;;;;;;;3.33;1.00;;;11.80;99.90;;;;;;5083749;28;20074;-86
2021/05/06 12:19:29;;;;;;;1.67;1.17;;;11.60;99.90;;;;;;5083606;28;20077;-87
2021/05/06 12:21:58;;;;;;;1.38;0.98;;;11.30;99.90;;;;;;5080929;28;20075;-87
2021/05/06 12:24:31;;;;;;;3.17;1.05;;;11.60;99.90;;;;;;5085168;28;20400;-86
2021/05/06 12:26:58;;;;;;;6.00;1.40;;;11.50;99.90;;;;;;5084877;28;20052;-87
2021/05/06 12:29:29;;;;;;;5.78;1.17;;;11.30;99.90;;;;;;5083361;28;20309;-87
2021/05/06 12:31:56;;;;;;;3.00;1.25;;;11.10;99.90;;;;;;5082151;28;20090;-87
2021/05/06 12:34:23;;;;;;;3.80;1.48;;;10.80;99.90;;;;;;5079341;28;20491;-86
2021/05/06 12:36:54;;;;;;;3.38;1.48;;;10.80;99.90;;;;;;5078399;28;20056;-86
2021/05/06 12:39:21;;;;;;;2.45;1.40;;;11.00;99.90;;;;;;5075886;28;20051;-86
2021/05/06 12:41:50;;;;;;;2.28;1.05;;;11.40;99.90;;;;;;5076526;28;20048;-86
2021/05/06 12:44:48;;;;;;;1.48;0.90;;;11.60;99.90;;;;;;5079059;28;20138;-87
2021/05/06 12:47:21;;;;;;;2.67;1.20;;;11.80;99.90;;;;;;5078774;28;20105;-87
2021/05/06 12:50:05;;;;;;;3.60;1.23;;;12.00;99.90;;;;;;5076325;28;20048;-86
2021/05/06 12:52:38;;;;;;;12.70;3.37;;;11.90;99.90;;;;;;5100811;28;20069;-87
2021/05/06 12:55:21;;;;;;;4.97;1.10;;;12.00;99.90;;;;;;5098714;28;20048;-87
2021/05/06 12:58:14;;;;;;;2.72;0.80;;;12.20;99.90;;;;;;5077426;28;20457;-87
2021/05/06 13:00:54;;;;;;;9.93;2.88;;;12.60;99.90;;;;;;5072110;28;20047;-87
2021/05/06 13:03:28;;;;;;;2.75;1.15;;;12.50;99.90;;;;;;5079616;28;20159;-87
2021/05/06 13:05:54;;;;;;;;;;;12.70;99.90;;;;;;5100074;28;20040;-85
2021/05/06 13:08:34;;;;;;;14.82;1.38;;;12.50;99.90;;;;;;5081655;28;19959;-87
2021/05/06 13:11:03;;;;;;;3.30;1.30;;;12.30;99.90;;;;;;5081594;28;20052;-86
2021/05/06 13:13:42;;;;;;;4.78;1.05;;;12.40;99.90;;;;;;5079286;28;20075;-87
2021/05/06 13:16:13;;;;;;;1.88;1.02;;;12.60;99.90;;;;;;5104104;28;20051;-85
2021/05/06 13:18:40;;;;;;;2.25;1.25;;;12.00;99.90;;;;;;5084232;28;20135;-86
2021/05/06 13:21:22;;;;;;;6.43;1.40;;;11.40;99.90;;;;;;5082609;28;20044;-86
2021/05/06 13:23:55;;;;;;;3.90;1.17;;;11.60;99.90;;;;;;5080847;28;20067;-85
2021/05/06 13:26:34;;;;;;;0.90;0.90;;;11.60;99.90;;;;;;5088636;28;20078;-85
2021/05/06 13:29:15;;;;;;;7.00;1.40;;;11.60;99.90;;;;;;5102877;28;20044;-86
2021/05/06 13:31:46;;;;;;;1.05;0.85;;;11.50;99.90;;;;;;5101849;28;20048;-87
2021/05/06 13:34:16;;;;;;;2.45;1.27;;;11.90;99.90;;;;;;5097468;28;20059;-85
2021/05/06 13:36:49;;;;;;;5.53;1.40;;;12.00;99.90;;;;;;5096997;28;20123;-86
2021/05/06 13:39:16;;;;;;;;;;;11.50;99.90;;;;;;5097615;28;20056;-86
2021/05/06 13:41:47;;;;;;;3.65;1.30;;;11.40;99.90;;;;;;5109729;28;19920;-84
2021/05/06 13:44:16;;;;;;;4.07;1.45;;;11.40;99.90;;;;;;5119246;28;20096;-85
2021/05/06 13:46:53;;;;;;;5.72;1.40;;;11.10;99.90;;;;;;5118304;28;20039;-85
2021/05/06 13:49:23;;;;;;;5.70;1.67;;;11.00;99.90;;;;;;5087826;28;20480;-85
2021/05/06 13:51:52;;;;;;;2.92;1.40;;;11.10;99.90;;;;;;5100046;28;20062;-87
2021/05/06 13:54:20;;;;;;;11.75;2.60;;;11.00;99.90;;;;;;5098119;28;20399;-87
2021/05/06 13:56:47;;;;;;;4.70;1.88;;;11.10;99.90;;;;;;5095727;28;20079;-85
2021/05/06 13:59:14;;;;;;;6.78;2.03;;;11.30;99.90;;;;;;5079419;28;20091;-86
2021/05/06 14:01:41;;;;;;;6.53;1.45;;;11.10;99.90;;;;;;5083616;28;20070;-87
2021/05/06 14:04:08;;;;;;;16.58;2.67;;;10.90;99.90;;;;;;5083473;28;20044;-87
2021/05/06 14:06:35;;;;;;;1.80;1.33;;;10.90;99.90;;;;;;5082508;28;20044;-87
2021/05/06 14:09:03;;;;;;;2.75;1.40;;;11.40;99.90;;;;;;5083697;28;20040;-88
2021/05/06 14:11:29;;;;;;;2.28;0.93;;;11.70;99.90;;;;;;5081252;28;20040;-87
2021/05/06 14:14:03;;;;;;;9.27;1.70;;;11.70;99.90;;;;;;5082813;28;20400;-86
2021/05/06 14:16:30;;;;;;;5.00;1.67;;;11.80;99.90;;;;;;5086167;28;20051;-85
2021/05/06 14:18:56;;;;;;;4.05;2.17;;;11.60;99.90;;;;;;5103383;28;20051;-86
2021/05/06 14:21:24;;;;;;;10.73;2.42;;;11.60;99.90;;;;;;5086412;28;20044;-87
2021/05/06 14:23:51;;;;;;;2.45;0.93;;;11.30;99.90;;;;;;5081722;28;20044;-84
2021/05/06 14:26:21;;;;;;;7.03;1.73;;;11.30;99.90;;;;;;5083659;28;20052;-86
2021/05/06 14:28:47;;;;;;;18.83;3.22;;;11.40;99.90;;;;;;5080693;28;20078;-87
2021/05/06 14:31:14;;;;;;;2.60;1.17;;;11.30;99.90;;;;;;5079598;28;20051;-88
2021/05/06 14:33:40;;;;;;;3.22;1.38;;;11.60;99.90;;;;;;5096530;28;20067;-87
2021/05/06 14:36:10;;;;;;;6.65;1.33;;;12.00;99.90;;;;;;5078081;28;20068;-87
2021/05/06 14:38:38;;;;;;;2.75;1.10;;;12.10;99.90;;;;;;5078337;28;20040;-87
2021/05/06 14:41:05;;;;;;;14.63;2.50;;;12.40;99.90;;;;;;5078021;28;20089;-87
2021/05/06 14:43:32;;;;;;;13.75;2.78;;;11.90;99.90;;;;;;5081263;28;20044;-87
2021/05/06 14:45:59;;;;;;;17.35;3.78;;;11.60;99.90;;;;;;5081873;28;20043;-86
2021/05/06 14:48:25;;;;;;;2.50;1.30;;;11.50;99.90;;;;;;5081648;28;20036;-87
2021/05/06 14:50:51;;;;;;;5.75;1.38;;;11.50;99.90;;;;;;5081494;28;20126;-86
2021/05/06 14:53:18;;;;;;;5.57;2.03;;;11.30;99.90;;;;;;5080262;28;20075;-86
2021/05/06 14:55:44;;;;;;;3.75;1.58;;;11.30;99.90;;;;;;5079708;28;20047;-87
2021/05/06 14:58:12;;;;;;;4.72;1.30;;;11.40;99.90;;;;;;5081556;28;20051;-88
2021/05/06 15:00:38;;;;;;;7.32;2.42;;;11.20;99.90;;;;;;5083532;28;20071;-87
2021/05/06 15:03:06;;;;;;;2.30;1.20;;;11.10;99.90;;;;;;5083814;28;20055;-86
2021/05/06 15:05:32;;;;;;;8.23;1.75;;;10.80;99.90;;;;;;5080717;28;20047;-86
2021/05/06 15:08:02;;;;;;;12.98;8.00;;;10.90;99.90;;;;;;5078083;28;20411;-88
2021/05/06 15:10:30;;;;;;;2.95;1.55;;;11.00;99.90;;;;;;5095897;28;20078;-86
2021/05/06 15:12:56;;;;;;;3.58;1.38;;;11.10;99.90;;;;;;5096399;28;20130;-86
2021/05/06 15:15:23;;;;;;;7.97;1.70;;;11.00;99.90;;;;;;5079470;28;20044;-86
2021/05/06 15:17:52;;;;;;;1.90;1.35;;;10.80;99.90;;;;;;5078690;28;20537;-87
2021/05/06 15:20:21;;;;;;;1.35;1.15;;;10.80;99.90;;;;;;5077838;28;20090;-86
2021/05/06 15:22:48;;;;;;;2.30;1.25;;;10.70;99.90;;;;;;5077384;28;20177;-86
2021/05/06 15:25:20;;;;;;;0.95;0.80;;;10.80;99.90;;;;;;5094931;28;20514;-87
2021/05/06 15:27:46;;;;;;;1.30;1.23;;;10.80;99.90;;;;;;5097852;28;20094;-87
2021/05/06 15:30:15;;;;;;;1.45;1.00;;;10.70;99.90;;;;;;5080800;28;20040;-87
2021/05/06 15:32:42;;;;;;;1.98;1.20;;;10.50;99.90;;;;;;5078704;28;20080;-86
2021/05/06 15:35:09;;;;;;;2.05;0.90;;;10.50;99.90;;;;;;5096688;28;20051;-88
2021/05/06 15:37:36;;;;;;;1.55;0.90;;;10.40;99.90;;;;;;5078028;28;20044;-88
2021/05/06 15:40:08;;;;;;;2.72;1.10;;;10.30;99.90;;;;;;5082294;28;20083;-87
2021/05/06 15:42:35;;;;;;;1.02;1.02;;;10.10;99.90;;;;;;5079964;28;20044;-88
2021/05/06 15:45:05;;;;;;;2.53;1.38;;;10.00;99.90;;;;;;5097740;28;20086;-87
2021/05/06 15:47:35;;;;;;;1.20;1.10;;;9.90;99.90;;;;;;5096911;28;20052;-87
2021/05/06 15:50:07;;;;;;;2.65;1.10;;;9.80;99.90;;;;;;5079296;28;20078;-87
2021/05/06 15:52:34;;;;;;;2.10;1.50;;;9.70;99.90;;;;;;5081489;28;20466;-88
2021/05/06 15:55:02;;;;;;;6.72;1.90;;;9.70;99.90;;;;;;5080657;28;20052;-88
2021/05/06 15:57:29;;;;;;;1.17;1.15;;;9.80;99.90;;;;;;5080695;28;20385;-88
2021/05/06 15:59:56;;;;;;;2.92;1.55;;;9.80;99.90;;;;;;5082500;28;20461;-87
2021/05/06 16:02:31;;;;;;;3.55;2.00;;;9.80;99.90;;;;;;5082607;28;20044;-88
2021/05/06 16:04:58;;;;;;;1.75;1.25;;;9.70;99.90;;;;;;5097073;28;20138;-87
2021/05/06 16:07:25;;;;;;;5.22;2.08;;;9.70;99.90;;;;;;5079038;28;20059;-88
2021/05/06 16:09:51;;;;;;;1.90;1.80;;;9.70;99.90;;;;;;5079537;28;20506;-88
2021/05/06 16:12:17;;;;;;;2.05;1.40;;;9.60;99.90;;;;;;5082506;28;20078;-86
2021/05/06 16:14:43;;;;;;;1.95;1.77;;;9.60;99.90;;;;;;5104888;28;20070;-87
2021/05/06 16:17:10;;;;;;;2.33;1.60;;;9.60;99.90;;;;;;5091513;28;20044;-87
2021/05/06 16:19:37;;;;;;;3.53;1.98;;;9.50;99.90;;;;;;5078627;28;20130;-88
2021/05/06 16:22:04;;;;;;;1.85;1.35;;;9.40;99.90;;;;;;5095031;28;20051;-88
2021/05/06 16:24:30;;;;;;;2.65;1.25;;;9.50;99.90;;;;;;5093986;28;20056;-88
2021/05/06 16:26:57;;;;;;;1.50;1.25;;;9.50;99.90;;;;;;5076362;28;20135;-87
2021/05/06 16:29:24;;;;;;;12.10;2.65;;;9.60;99.90;;;;;;5075969;28;20052;-88
2021/05/06 16:31:51;;;;;;;1.35;1.25;;;9.50;99.90;;;;;;5094607;28;20109;-87
2021/05/06 16:34:23;;;;;;;1.70;1.60;;;9.50;99.90;;;;;;5095256;28;20048;-87
2021/05/06 16:37:56;;;;;;;1.50;1.40;;;9.50;99.90;;;;;;5076075;28;20097;-88
2021/05/06 16:40:04;;;;;;;2.15;1.23;;;9.50;99.90;;;;;;5070356;28;20085;-88
2021/05/06 16:42:44;;;;;;;1.17;1.13;;;9.50;99.90;;;;;;5094177;28;20055;-88
2021/05/06 16:45:13;;;;;;;1.65;1.33;;;9.60;99.90;;;;;;5077790;28;20052;-87
2021/05/06 16:47:40;;;;;;;2.90;2.55;;;9.60;99.90;;;;;;5078365;28;20044;-88